Buoy 43528

sailwx.info

Track history (hours):
 
Tides and Currents Weather Stations Pressure Air Temp Water Temp Dewpoint Dewpoint Depression Visibility Wind Speed Wind Dir Waves Ship Positions

Drifting buoy 43528

Last reported at 2014-Dec-21 19:00 UTC. Time now 2014-Dec-21 23:12 UTC.
Position N 12°18' W 140°23'.

Water temperature 26.2 ° C

Date/timePositionNaut miles runAvg speedWind from/ knotsBaromVisibWave heightAir tempDewpointWater temp
2014-Dec-21 19:00N 12°18' W 140°23'1 0.9 26.2
2014-Dec-21 18:00N 12°18' W 140°22'4 3.7 26.2
2014-Dec-21 17:00N 12°16' W 140°19'11 1.1 26.2
2014-Dec-21 07:00N 12°16' W 140°07'1 0.9 26.1
2014-Dec-21 06:00N 12°16' W 140°06'1 0.7 26.1
2014-Dec-21 04:00N 12°15' W 140°05'5 2.4 26.1
2014-Dec-21 02:00N 12°15' W 140°00'2 2.3 26.1
2014-Dec-21 01:00N 12°15' W 139°58'3 2.7 26.1
2014-Dec-21 00:00N 12°15' W 139°55'0 0.0 26.1
2014-Dec-20 23:00N 12°15' W 139°55'7 1.8 26.1
2014-Dec-20 19:00N 12°16' W 139°48'0 0.1 26.1
2014-Dec-20 18:00N 12°16' W 139°48'3 1.7 26.1
2014-Dec-20 16:00N 12°17' W 139°45'1 0.9 26.1
2014-Dec-20 15:00N 12°17' W 139°44'3 1.4 26.1
2014-Dec-20 13:00N 12°19' W 139°42'5 2.3 26.1
2014-Dec-20 11:00N 12°20' W 139°37'5 4.6 26.1
2014-Dec-20 10:00N 12°19' W 139°42'5 1.8 26.1
2014-Dec-20 07:00N 12°20' W 139°36'1 0.8 26.1
2014-Dec-20 06:00N 12°20' W 139°35'0 0.0 26.2
2014-Dec-20 05:00N 12°20' W 139°35'3 1.5 26.2
2014-Dec-20 03:00N 12°21' W 139°33'2 1.6 26.2
2014-Dec-20 02:00N 12°23' W 139°32'0 0.3 26.2
2014-Dec-20 01:00N 12°23' W 139°32'1 1.2 26.2
2014-Dec-20 00:00N 12°23' W 139°31'1 0.7 26.2
2014-Dec-19 22:00N 12°23' W 139°30'2 0.8 26.2
2014-Dec-19 20:00N 12°23' W 139°28'0 0.0 26.2
2014-Dec-19 19:00N 12°23' W 139°28'2 2.2 26.2
2014-Dec-19 18:00N 12°22' W 139°26'0 0.0 26.1
2014-Dec-19 17:00N 12°22' W 139°26'1 0.5 26.1
2014-Dec-19 15:00N 12°23' W 139°25'3 1.5 26.1
2014-Dec-19 13:00N 12°22' W 139°22'0 0.0 26.1
2014-Dec-19 12:00N 12°22' W 139°22'5 4.7 26.2
2014-Dec-19 11:00N 12°20' W 139°17'2 0.5 26.2
2014-Dec-19 07:00N 12°20' W 139°15'1 0.8 26.2
2014-Dec-19 06:00N 12°21' W 139°15'5 2.5 26.2
2014-Dec-19 04:00N 12°21' W 139°09'0 0.0 26.2
2014-Dec-19 03:00N 12°21' W 139°09'0 0.1 26.2
2014-Dec-19 02:00N 12°21' W 139°09'4 1.9 26.2
2014-Dec-19 00:00N 12°22' W 139°06'0 0.1 26.2
2014-Dec-18 23:00N 12°22' W 139°06'4 3.8 26.2
2014-Dec-18 22:00N 12°24' W 139°02'4 1.1 26.2
2014-Dec-18 18:00N 12°25' W 138°58'0 0.0 26.2
2014-Dec-18 17:00N 12°25' W 138°58'2 1.0 26.2
2014-Dec-18 15:00N 12°26' W 138°56'0 0.0 26.2
2014-Dec-18 14:00N 12°26' W 138°56'2 1.9 26.2
2014-Dec-18 13:00N 12°26' W 138°54'0 0.0 26.2
2014-Dec-18 12:00N 12°26' W 138°54'0 0.0 26.2
2014-Dec-18 11:00N 12°26' W 138°54'5 5.0 26.2
2014-Dec-18 10:00N 12°27' W 138°49'1 0.3 26.2
2014-Dec-18 07:00N 12°28' W 138°49'0 0.0 26.2
2014-Dec-18 06:00N 12°28' W 138°49'2 1.6 26.2
2014-Dec-18 05:00N 12°29' W 138°48'1 0.7 26.2
2014-Dec-18 04:00N 12°29' W 138°47'1 1.1 26.2
2014-Dec-18 03:00N 12°29' W 138°46'2 1.6 26.2
2014-Dec-18 02:00N 12°30' W 138°45'4 2.0 26.2
2014-Dec-18 00:00N 12°32' W 138°42'0 0.0 26.3
2014-Dec-17 23:00N 12°32' W 138°42'0 0.0 26.2
2014-Dec-17 20:00N 12°32' W 138°42'1 0.7 26.2
2014-Dec-17 19:00N 12°32' W 138°41'1 1.4 26.2
2014-Dec-17 18:00N 12°33' W 138°40'1 0.7 26.2
2014-Dec-17 17:00N 12°33' W 138°39'3 0.9 26.2
2014-Dec-17 14:00N 12°34' W 138°37'1 1.2 26.2
2014-Dec-17 13:00N 12°35' W 138°35'0 0.0 26.2
2014-Dec-17 12:00N 12°35' W 138°35'2 2.1 26.2
2014-Dec-17 11:00N 12°34' W 138°33'0 0.0 26.2
2014-Dec-17 10:00N 12°34' W 138°33'1 0.3 26.2
2014-Dec-17 07:00N 12°34' W 138°32'2 1.8 26.2
2014-Dec-17 06:00N 12°36' W 138°31'1 0.2 26.2
2014-Dec-17 03:00N 12°36' W 138°30'3 1.1 26.2
2014-Dec-17 00:00N 12°37' W 138°27'2 1.6 26.2
2014-Dec-16 23:00N 12°37' W 138°25'2 0.4 26.2
2014-Dec-16 19:00N 12°37' W 138°24'2 1.8 26.1
2014-Dec-16 18:00N 12°37' W 138°22'0 0.0 26.1
2014-Dec-16 17:00N 12°37' W 138°22'12 0.6 26.1
2014-Dec-15 23:00N 12°43' W 138°12'0 0.0 26.2
2014-Dec-15 22:00N 12°43' W 138°12'0 0.0 26.2
2014-Dec-15 21:00N 12°43' W 138°12'3 1.3 26.1
2014-Dec-15 19:00N 12°44' W 138°10'0 0.0 26.1
2014-Dec-15 18:00N 12°44' W 138°10'0 0.0 26.1
2014-Dec-15 17:00N 12°44' W 138°10'2 1.2 26.1
2014-Dec-15 15:00N 12°45' W 138°07'1 1.3 26.1
2014-Dec-15 14:00N 12°46' W 138°06'0 0.0 26.1
2014-Dec-15 12:00N 12°46' W 138°06'1 1.2 26.1
2014-Dec-15 11:00N 12°47' W 138°06'2 1.8 26.1
2014-Dec-15 10:00N 12°47' W 138°04'1 0.4 26.1
2014-Dec-15 07:00N 12°48' W 138°04'0 0.0 26.1
2014-Dec-15 06:00N 12°48' W 138°04'1 0.8 26.1
2014-Dec-15 05:00N 12°49' W 138°03'0 0.0 26.1
2014-Dec-15 04:00N 12°49' W 138°03'0 0.0 26.1
2014-Dec-15 03:00N 12°49' W 138°03'1 0.8 26.2
2014-Dec-15 02:00N 12°49' W 138°02'0 0.0 26.2
2014-Dec-15 01:00N 12°49' W 138°02'2 0.9 26.2
2014-Dec-14 23:00N 12°50' W 138°01'0 0.0 26.3
2014-Dec-14 22:00N 12°50' W 138°01'1 1.3 26.2
2014-Dec-14 21:00N 12°50' W 137°59'1 0.7 26.2
2014-Dec-14 19:00N 12°51' W 137°58'0 0.0 26.1
2014-Dec-14 18:00N 12°51' W 137°58'1 0.8 26.0
2014-Dec-14 17:00N 12°50' W 137°58'1 0.6 26.0
2014-Dec-14 15:00N 12°50' W 137°56'1 0.6 26.0
2014-Dec-14 14:00N 12°51' W 137°56'0 0.0 26.0
2014-Dec-14 13:00N 12°51' W 137°56'2 0.8 26.0
2014-Dec-14 11:00N 12°52' W 137°55'1 1.3 26.0
2014-Dec-14 10:00N 12°53' W 137°54'1 0.4 26.0
2014-Dec-14 07:00N 12°53' W 137°53'1 0.8 26.0
2014-Dec-14 06:00N 12°53' W 137°52'2 2.4 26.0
2014-Dec-14 05:00N 12°54' W 137°50'0 0.0 26.0
2014-Dec-14 03:00N 12°54' W 137°50'2 0.9 26.0
2014-Dec-14 01:00N 12°55' W 137°48'1 0.6 26.1
2014-Dec-13 23:00N 12°55' W 137°47'12 0.5 26.0
2014-Dec-13 00:00N 12°58' W 137°36'0 0.0 26.0
2014-Dec-12 22:00N 12°58' W 137°36'2 1.2 26.0
2014-Dec-12 20:00N 12°59' W 137°33'1 0.6 26.0
2014-Dec-12 19:00N 12°59' W 137°33'3 2.6 25.9
2014-Dec-12 18:00N 12°59' W 137°30'8 0.6 25.9
2014-Dec-12 04:00N 13°02' W 137°22'2 1.2 25.9
2014-Dec-12 02:00N 13°03' W 137°20'0 0.0 25.9
2014-Dec-12 01:00N 13°03' W 137°20'0 0.1 26.0
2014-Dec-12 00:00N 13°03' W 137°20'2 2.1 26.0
2014-Dec-11 23:00N 13°04' W 137°18'3 0.8 26.0
2014-Dec-11 19:00N 13°06' W 137°16'   25.9
Track history (hours):
 
Tides and Currents Weather Stations Pressure Air Temp Water Temp Dewpoint Dewpoint Depression Visibility Wind Speed Wind Dir Waves Ship Positions

Drifting buoy 43528

Last reported at 2014-Dec-21 19:00 UTC. Time now 2014-Dec-21 23:12 UTC.
Position N 12°18' W 140°23'.

Water temperature 26.2 ° C

Date/timePositionNaut miles runAvg speedWind from/ knotsBaromVisibWave heightAir tempDewpointWater temp
2014-Dec-21 19:00N 12°18' W 140°23'1 0.9 26.2
2014-Dec-21 18:00N 12°18' W 140°22'4 3.7 26.2
2014-Dec-21 17:00N 12°16' W 140°19'11 1.1 26.2
2014-Dec-21 07:00N 12°16' W 140°07'1 0.9 26.1
2014-Dec-21 06:00N 12°16' W 140°06'1 0.7 26.1
2014-Dec-21 04:00N 12°15' W 140°05'5 2.4 26.1
2014-Dec-21 02:00N 12°15' W 140°00'2 2.3 26.1
2014-Dec-21 01:00N 12°15' W 139°58'3 2.7 26.1
2014-Dec-21 00:00N 12°15' W 139°55'0 0.0 26.1
2014-Dec-20 23:00N 12°15' W 139°55'7 1.8 26.1
2014-Dec-20 19:00N 12°16' W 139°48'0 0.1 26.1
2014-Dec-20 18:00N 12°16' W 139°48'3 1.7 26.1
2014-Dec-20 16:00N 12°17' W 139°45'1 0.9 26.1
2014-Dec-20 15:00N 12°17' W 139°44'3 1.4 26.1
2014-Dec-20 13:00N 12°19' W 139°42'5 2.3 26.1
2014-Dec-20 11:00N 12°20' W 139°37'5 4.6 26.1
2014-Dec-20 10:00N 12°19' W 139°42'5 1.8 26.1
2014-Dec-20 07:00N 12°20' W 139°36'1 0.8 26.1
2014-Dec-20 06:00N 12°20' W 139°35'0 0.0 26.2
2014-Dec-20 05:00N 12°20' W 139°35'3 1.5 26.2
2014-Dec-20 03:00N 12°21' W 139°33'2 1.6 26.2
2014-Dec-20 02:00N 12°23' W 139°32'0 0.3 26.2
2014-Dec-20 01:00N 12°23' W 139°32'1 1.2 26.2
2014-Dec-20 00:00N 12°23' W 139°31'1 0.7 26.2
2014-Dec-19 22:00N 12°23' W 139°30'2 0.8 26.2
2014-Dec-19 20:00N 12°23' W 139°28'0 0.0 26.2
2014-Dec-19 19:00N 12°23' W 139°28'2 2.2 26.2
2014-Dec-19 18:00N 12°22' W 139°26'0 0.0 26.1
2014-Dec-19 17:00N 12°22' W 139°26'1 0.5 26.1
2014-Dec-19 15:00N 12°23' W 139°25'3 1.5 26.1
2014-Dec-19 13:00N 12°22' W 139°22'0 0.0 26.1
2014-Dec-19 12:00N 12°22' W 139°22'5 4.7 26.2
2014-Dec-19 11:00N 12°20' W 139°17'2 0.5 26.2
2014-Dec-19 07:00N 12°20' W 139°15'1 0.8 26.2
2014-Dec-19 06:00N 12°21' W 139°15'5 2.5 26.2
2014-Dec-19 04:00N 12°21' W 139°09'0 0.0 26.2
2014-Dec-19 03:00N 12°21' W 139°09'0 0.1 26.2
2014-Dec-19 02:00N 12°21' W 139°09'4 1.9 26.2
2014-Dec-19 00:00N 12°22' W 139°06'0 0.1 26.2
2014-Dec-18 23:00N 12°22' W 139°06'4 3.8 26.2
2014-Dec-18 22:00N 12°24' W 139°02'4 1.1 26.2
2014-Dec-18 18:00N 12°25' W 138°58'0 0.0 26.2
2014-Dec-18 17:00N 12°25' W 138°58'2 1.0 26.2
2014-Dec-18 15:00N 12°26' W 138°56'0 0.0 26.2
2014-Dec-18 14:00N 12°26' W 138°56'2 1.9 26.2
2014-Dec-18 13:00N 12°26' W 138°54'0 0.0 26.2
2014-Dec-18 12:00N 12°26' W 138°54'0 0.0 26.2
2014-Dec-18 11:00N 12°26' W 138°54'5 5.0 26.2
2014-Dec-18 10:00N 12°27' W 138°49'1 0.3 26.2
2014-Dec-18 07:00N 12°28' W 138°49'0 0.0 26.2
2014-Dec-18 06:00N 12°28' W 138°49'2 1.6 26.2
2014-Dec-18 05:00N 12°29' W 138°48'1 0.7 26.2
2014-Dec-18 04:00N 12°29' W 138°47'1 1.1 26.2
2014-Dec-18 03:00N 12°29' W 138°46'2 1.6 26.2
2014-Dec-18 02:00N 12°30' W 138°45'4 2.0 26.2
2014-Dec-18 00:00N 12°32' W 138°42'0 0.0 26.3
2014-Dec-17 23:00N 12°32' W 138°42'0 0.0 26.2
2014-Dec-17 20:00N 12°32' W 138°42'1 0.7 26.2
2014-Dec-17 19:00N 12°32' W 138°41'1 1.4 26.2
2014-Dec-17 18:00N 12°33' W 138°40'1 0.7 26.2
2014-Dec-17 17:00N 12°33' W 138°39'3 0.9 26.2
2014-Dec-17 14:00N 12°34' W 138°37'1 1.2 26.2
2014-Dec-17 13:00N 12°35' W 138°35'0 0.0 26.2
2014-Dec-17 12:00N 12°35' W 138°35'2 2.1 26.2
2014-Dec-17 11:00N 12°34' W 138°33'0 0.0 26.2
2014-Dec-17 10:00N 12°34' W 138°33'1 0.3 26.2
2014-Dec-17 07:00N 12°34' W 138°32'2 1.8 26.2
2014-Dec-17 06:00N 12°36' W 138°31'1 0.2 26.2
2014-Dec-17 03:00N 12°36' W 138°30'3 1.1 26.2
2014-Dec-17 00:00N 12°37' W 138°27'2 1.6 26.2
2014-Dec-16 23:00N 12°37' W 138°25'2 0.4 26.2
2014-Dec-16 19:00N 12°37' W 138°24'2 1.8 26.1
2014-Dec-16 18:00N 12°37' W 138°22'0 0.0 26.1
2014-Dec-16 17:00N 12°37' W 138°22'12 0.6 26.1
2014-Dec-15 23:00N 12°43' W 138°12'0 0.0 26.2
2014-Dec-15 22:00N 12°43' W 138°12'0 0.0 26.2
2014-Dec-15 21:00N 12°43' W 138°12'3 1.3 26.1
2014-Dec-15 19:00N 12°44' W 138°10'0 0.0 26.1
2014-Dec-15 18:00N 12°44' W 138°10'0 0.0 26.1
2014-Dec-15 17:00N 12°44' W 138°10'2 1.2 26.1
2014-Dec-15 15:00N 12°45' W 138°07'1 1.3 26.1
2014-Dec-15 14:00N 12°46' W 138°06'0 0.0 26.1
2014-Dec-15 12:00N 12°46' W 138°06'1 1.2 26.1
2014-Dec-15 11:00N 12°47' W 138°06'2 1.8 26.1
2014-Dec-15 10:00N 12°47' W 138°04'1 0.4 26.1
2014-Dec-15 07:00N 12°48' W 138°04'0 0.0 26.1
2014-Dec-15 06:00N 12°48' W 138°04'1 0.8 26.1
2014-Dec-15 05:00N 12°49' W 138°03'0 0.0 26.1
2014-Dec-15 04:00N 12°49' W 138°03'0 0.0 26.1
2014-Dec-15 03:00N 12°49' W 138°03'1 0.8 26.2
2014-Dec-15 02:00N 12°49' W 138°02'0 0.0 26.2
2014-Dec-15 01:00N 12°49' W 138°02'2 0.9 26.2
2014-Dec-14 23:00N 12°50' W 138°01'0 0.0 26.3
2014-Dec-14 22:00N 12°50' W 138°01'1 1.3 26.2
2014-Dec-14 21:00N 12°50' W 137°59'1 0.7 26.2
2014-Dec-14 19:00N 12°51' W 137°58'0 0.0 26.1
2014-Dec-14 18:00N 12°51' W 137°58'1 0.8 26.0
2014-Dec-14 17:00N 12°50' W 137°58'1 0.6 26.0
2014-Dec-14 15:00N 12°50' W 137°56'1 0.6 26.0
2014-Dec-14 14:00N 12°51' W 137°56'0 0.0 26.0
2014-Dec-14 13:00N 12°51' W 137°56'2 0.8 26.0
2014-Dec-14 11:00N 12°52' W 137°55'1 1.3 26.0
2014-Dec-14 10:00N 12°53' W 137°54'1 0.4 26.0
2014-Dec-14 07:00N 12°53' W 137°53'1 0.8 26.0
2014-Dec-14 06:00N 12°53' W 137°52'2 2.4 26.0
2014-Dec-14 05:00N 12°54' W 137°50'0 0.0 26.0
2014-Dec-14 03:00N 12°54' W 137°50'2 0.9 26.0
2014-Dec-14 01:00N 12°55' W 137°48'1 0.6 26.1
2014-Dec-13 23:00N 12°55' W 137°47'12 0.5 26.0
2014-Dec-13 00:00N 12°58' W 137°36'0 0.0 26.0
2014-Dec-12 22:00N 12°58' W 137°36'2 1.2 26.0
2014-Dec-12 20:00N 12°59' W 137°33'1 0.6 26.0
2014-Dec-12 19:00N 12°59' W 137°33'3 2.6 25.9
2014-Dec-12 18:00N 12°59' W 137°30'8 0.6 25.9
2014-Dec-12 04:00N 13°02' W 137°22'2 1.2 25.9
2014-Dec-12 02:00N 13°03' W 137°20'0 0.0 25.9
2014-Dec-12 01:00N 13°03' W 137°20'0 0.1 26.0
2014-Dec-12 00:00N 13°03' W 137°20'2 2.1 26.0
2014-Dec-11 23:00N 13°04' W 137°18'3 0.8 26.0
2014-Dec-11 19:00N 13°06' W 137°16'   25.9

Dump ship's entire track history